sensor_id;sensor_type;location;lat;lon;timestamp;P1;durP1;ratioP1;P2;durP2;ratioP2
73776;SDS011;62088;50.240;2.696;2024-03-22T00:01:48;17.83;;;9.10;;
73776;SDS011;62088;50.240;2.696;2024-03-22T00:04:16;15.82;;;9.68;;
73776;SDS011;62088;50.240;2.696;2024-03-22T00:06:43;14.88;;;9.02;;
73776;SDS011;62088;50.240;2.696;2024-03-22T00:09:10;15.88;;;9.45;;
73776;SDS011;62088;50.240;2.696;2024-03-22T00:11:36;12.20;;;7.88;;
73776;SDS011;62088;50.240;2.696;2024-03-22T00:14:04;14.05;;;9.50;;
73776;SDS011;62088;50.240;2.696;2024-03-22T00:16:33;15.20;;;7.85;;
73776;SDS011;62088;50.240;2.696;2024-03-22T00:18:59;15.70;;;7.93;;
73776;SDS011;62088;50.240;2.696;2024-03-22T00:21:25;16.02;;;10.05;;
73776;SDS011;62088;50.240;2.696;2024-03-22T00:23:51;16.83;;;8.07;;
73776;SDS011;62088;50.240;2.696;2024-03-22T00:26:17;13.45;;;8.07;;
73776;SDS011;62088;50.240;2.696;2024-03-22T00:28:43;14.07;;;9.13;;
73776;SDS011;62088;50.240;2.696;2024-03-22T00:31:10;13.38;;;8.43;;
73776;SDS011;62088;50.240;2.696;2024-03-22T00:33:36;12.50;;;8.18;;
73776;SDS011;62088;50.240;2.696;2024-03-22T00:36:02;16.77;;;10.02;;
73776;SDS011;62088;50.240;2.696;2024-03-22T00:38:28;15.38;;;10.05;;
73776;SDS011;62088;50.240;2.696;2024-03-22T00:40:54;17.92;;;10.63;;
73776;SDS011;62088;50.240;2.696;2024-03-22T00:43:20;16.40;;;8.95;;
73776;SDS011;62088;50.240;2.696;2024-03-22T00:45:47;14.50;;;7.90;;
73776;SDS011;62088;50.240;2.696;2024-03-22T00:48:13;18.55;;;9.73;;
73776;SDS011;62088;50.240;2.696;2024-03-22T00:50:39;26.27;;;10.60;;
73776;SDS011;62088;50.240;2.696;2024-03-22T00:53:05;17.50;;;10.02;;
73776;SDS011;62088;50.240;2.696;2024-03-22T00:55:33;14.77;;;8.93;;
73776;SDS011;62088;50.240;2.696;2024-03-22T00:58:00;15.15;;;8.10;;
73776;SDS011;62088;50.240;2.696;2024-03-22T01:00:26;14.93;;;8.25;;
73776;SDS011;62088;50.240;2.696;2024-03-22T01:02:52;15.20;;;8.73;;
73776;SDS011;62088;50.240;2.696;2024-03-22T01:05:18;18.80;;;8.57;;
73776;SDS011;62088;50.240;2.696;2024-03-22T01:07:44;16.55;;;10.30;;
73776;SDS011;62088;50.240;2.696;2024-03-22T01:10:11;16.75;;;9.75;;
73776;SDS011;62088;50.240;2.696;2024-03-22T01:12:37;15.32;;;9.00;;
73776;SDS011;62088;50.240;2.696;2024-03-22T01:15:05;15.93;;;9.57;;
73776;SDS011;62088;50.240;2.696;2024-03-22T01:17:33;19.88;;;11.70;;
73776;SDS011;62088;50.240;2.696;2024-03-22T01:19:59;16.45;;;9.40;;
73776;SDS011;62088;50.240;2.696;2024-03-22T01:22:25;16.92;;;9.32;;
73776;SDS011;62088;50.240;2.696;2024-03-22T01:24:51;20.77;;;10.43;;
73776;SDS011;62088;50.240;2.696;2024-03-22T01:27:17;16.05;;;10.57;;
73776;SDS011;62088;50.240;2.696;2024-03-22T01:29:43;15.35;;;8.88;;
73776;SDS011;62088;50.240;2.696;2024-03-22T01:32:09;16.33;;;9.55;;
73776;SDS011;62088;50.240;2.696;2024-03-22T01:34:36;18.05;;;10.70;;
73776;SDS011;62088;50.240;2.696;2024-03-22T01:37:02;16.60;;;11.13;;
73776;SDS011;62088;50.240;2.696;2024-03-22T01:39:28;19.33;;;12.32;;
73776;SDS011;62088;50.240;2.696;2024-03-22T01:41:54;18.70;;;10.27;;
73776;SDS011;62088;50.240;2.696;2024-03-22T01:44:26;18.77;;;11.30;;
73776;SDS011;62088;50.240;2.696;2024-03-22T01:46:53;20.45;;;11.48;;
73776;SDS011;62088;50.240;2.696;2024-03-22T01:49:20;21.55;;;11.02;;
73776;SDS011;62088;50.240;2.696;2024-03-22T01:51:46;20.40;;;9.60;;
73776;SDS011;62088;50.240;2.696;2024-03-22T01:54:13;18.50;;;9.90;;
73776;SDS011;62088;50.240;2.696;2024-03-22T01:56:42;16.80;;;9.18;;
73776;SDS011;62088;50.240;2.696;2024-03-22T01:59:08;15.13;;;8.98;;
73776;SDS011;62088;50.240;2.696;2024-03-22T02:01:35;15.93;;;9.55;;
73776;SDS011;62088;50.240;2.696;2024-03-22T02:04:02;17.73;;;10.18;;
73776;SDS011;62088;50.240;2.696;2024-03-22T02:06:28;16.10;;;10.13;;
73776;SDS011;62088;50.240;2.696;2024-03-22T02:08:54;18.90;;;8.65;;
73776;SDS011;62088;50.240;2.696;2024-03-22T02:11:21;16.60;;;8.43;;
73776;SDS011;62088;50.240;2.696;2024-03-22T02:13:48;17.30;;;8.63;;
73776;SDS011;62088;50.240;2.696;2024-03-22T02:16:14;15.20;;;9.10;;
73776;SDS011;62088;50.240;2.696;2024-03-22T02:18:41;15.75;;;9.73;;
73776;SDS011;62088;50.240;2.696;2024-03-22T02:21:07;17.50;;;9.20;;
73776;SDS011;62088;50.240;2.696;2024-03-22T02:23:33;14.05;;;8.55;;
73776;SDS011;62088;50.240;2.696;2024-03-22T02:26:01;14.73;;;8.75;;
73776;SDS011;62088;50.240;2.696;2024-03-22T02:28:28;15.63;;;10.10;;
73776;SDS011;62088;50.240;2.696;2024-03-22T02:30:54;14.50;;;8.85;;
73776;SDS011;62088;50.240;2.696;2024-03-22T02:33:20;19.65;;;10.38;;
73776;SDS011;62088;50.240;2.696;2024-03-22T02:35:47;16.13;;;8.88;;
73776;SDS011;62088;50.240;2.696;2024-03-22T02:38:13;13.25;;;8.10;;
73776;SDS011;62088;50.240;2.696;2024-03-22T02:40:40;12.75;;;7.90;;
73776;SDS011;62088;50.240;2.696;2024-03-22T02:43:06;14.20;;;8.68;;
73776;SDS011;62088;50.240;2.696;2024-03-22T02:45:32;12.23;;;7.22;;
73776;SDS011;62088;50.240;2.696;2024-03-22T02:47:58;13.20;;;8.32;;
73776;SDS011;62088;50.240;2.696;2024-03-22T02:50:24;15.60;;;8.75;;
73776;SDS011;62088;50.240;2.696;2024-03-22T02:52:50;13.40;;;8.00;;
73776;SDS011;62088;50.240;2.696;2024-03-22T02:55:16;12.35;;;6.97;;
73776;SDS011;62088;50.240;2.696;2024-03-22T02:57:42;11.95;;;8.02;;
73776;SDS011;62088;50.240;2.696;2024-03-22T03:00:08;16.45;;;8.32;;
73776;SDS011;62088;50.240;2.696;2024-03-22T03:02:35;15.35;;;9.10;;
73776;SDS011;62088;50.240;2.696;2024-03-22T03:05:01;16.30;;;9.25;;
73776;SDS011;62088;50.240;2.696;2024-03-22T03:07:28;12.32;;;7.53;;
73776;SDS011;62088;50.240;2.696;2024-03-22T03:09:54;15.52;;;8.20;;
73776;SDS011;62088;50.240;2.696;2024-03-22T03:12:20;17.30;;;8.05;;
73776;SDS011;62088;50.240;2.696;2024-03-22T03:14:46;17.08;;;8.63;;
73776;SDS011;62088;50.240;2.696;2024-03-22T03:17:12;17.80;;;9.95;;
73776;SDS011;62088;50.240;2.696;2024-03-22T03:19:38;17.02;;;8.60;;
73776;SDS011;62088;50.240;2.696;2024-03-22T03:22:04;20.92;;;8.90;;
73776;SDS011;62088;50.240;2.696;2024-03-22T03:24:31;15.32;;;8.27;;
73776;SDS011;62088;50.240;2.696;2024-03-22T03:26:57;20.77;;;9.75;;
73776;SDS011;62088;50.240;2.696;2024-03-22T03:29:23;19.83;;;7.65;;
73776;SDS011;62088;50.240;2.696;2024-03-22T03:31:49;16.42;;;8.68;;
73776;SDS011;62088;50.240;2.696;2024-03-22T03:34:15;17.90;;;9.27;;
73776;SDS011;62088;50.240;2.696;2024-03-22T03:36:41;19.52;;;10.27;;
73776;SDS011;62088;50.240;2.696;2024-03-22T03:39:07;16.70;;;8.90;;
73776;SDS011;62088;50.240;2.696;2024-03-22T03:41:33;15.00;;;8.60;;
73776;SDS011;62088;50.240;2.696;2024-03-22T03:43:59;17.02;;;8.93;;
73776;SDS011;62088;50.240;2.696;2024-03-22T03:46:25;15.02;;;8.50;;
73776;SDS011;62088;50.240;2.696;2024-03-22T03:48:51;17.63;;;8.45;;
73776;SDS011;62088;50.240;2.696;2024-03-22T03:51:17;21.65;;;10.68;;
73776;SDS011;62088;50.240;2.696;2024-03-22T03:53:43;16.30;;;8.48;;
73776;SDS011;62088;50.240;2.696;2024-03-22T03:56:09;20.10;;;9.93;;
73776;SDS011;62088;50.240;2.696;2024-03-22T03:58:35;18.02;;;8.18;;
73776;SDS011;62088;50.240;2.696;2024-03-22T04:01:05;16.08;;;9.38;;
73776;SDS011;62088;50.240;2.696;2024-03-22T04:03:32;19.65;;;10.80;;
73776;SDS011;62088;50.240;2.696;2024-03-22T04:05:58;20.83;;;9.15;;
73776;SDS011;62088;50.240;2.696;2024-03-22T04:08:27;18.33;;;10.00;;
73776;SDS011;62088;50.240;2.696;2024-03-22T04:10:56;16.85;;;9.35;;
73776;SDS011;62088;50.240;2.696;2024-03-22T04:13:23;17.80;;;9.43;;
73776;SDS011;62088;50.240;2.696;2024-03-22T04:15:49;16.83;;;9.93;;
73776;SDS011;62088;50.240;2.696;2024-03-22T04:18:15;18.88;;;8.02;;
73776;SDS011;62088;50.240;2.696;2024-03-22T04:20:41;18.23;;;9.70;;
73776;SDS011;62088;50.240;2.696;2024-03-22T04:23:09;17.48;;;9.90;;
73776;SDS011;62088;50.240;2.696;2024-03-22T04:25:35;20.50;;;11.18;;
73776;SDS011;62088;50.240;2.696;2024-03-22T04:28:01;22.60;;;11.80;;
73776;SDS011;62088;50.240;2.696;2024-03-22T04:30:27;19.50;;;10.93;;
73776;SDS011;62088;50.240;2.696;2024-03-22T04:32:53;22.08;;;11.23;;
73776;SDS011;62088;50.240;2.696;2024-03-22T04:35:19;21.65;;;11.38;;
73776;SDS011;62088;50.240;2.696;2024-03-22T04:37:45;16.25;;;9.32;;
73776;SDS011;62088;50.240;2.696;2024-03-22T04:40:11;20.23;;;11.15;;
73776;SDS011;62088;50.240;2.696;2024-03-22T04:42:37;17.50;;;10.75;;
73776;SDS011;62088;50.240;2.696;2024-03-22T04:45:04;27.88;;;11.05;;
73776;SDS011;62088;50.240;2.696;2024-03-22T04:47:30;23.55;;;12.43;;
73776;SDS011;62088;50.240;2.696;2024-03-22T04:49:56;18.55;;;10.88;;
73776;SDS011;62088;50.240;2.696;2024-03-22T04:52:22;21.08;;;10.68;;
73776;SDS011;62088;50.240;2.696;2024-03-22T04:54:48;22.90;;;12.30;;
73776;SDS011;62088;50.240;2.696;2024-03-22T04:57:14;23.05;;;11.60;;
73776;SDS011;62088;50.240;2.696;2024-03-22T04:59:40;19.40;;;10.25;;
73776;SDS011;62088;50.240;2.696;2024-03-22T05:02:06;21.52;;;10.95;;
73776;SDS011;62088;50.240;2.696;2024-03-22T05:04:32;19.75;;;11.23;;
73776;SDS011;62088;50.240;2.696;2024-03-22T05:06:59;23.33;;;13.63;;
73776;SDS011;62088;50.240;2.696;2024-03-22T05:09:25;25.20;;;11.55;;
73776;SDS011;62088;50.240;2.696;2024-03-22T05:11:51;24.13;;;11.93;;
73776;SDS011;62088;50.240;2.696;2024-03-22T05:14:18;24.92;;;12.35;;
73776;SDS011;62088;50.240;2.696;2024-03-22T05:16:45;22.92;;;11.95;;
73776;SDS011;62088;50.240;2.696;2024-03-22T05:19:11;30.25;;;14.20;;
73776;SDS011;62088;50.240;2.696;2024-03-22T05:21:37;25.73;;;13.85;;
73776;SDS011;62088;50.240;2.696;2024-03-22T05:24:03;21.88;;;12.93;;
73776;SDS011;62088;50.240;2.696;2024-03-22T05:26:29;25.63;;;12.75;;
73776;SDS011;62088;50.240;2.696;2024-03-22T05:28:57;20.77;;;11.65;;
73776;SDS011;62088;50.240;2.696;2024-03-22T05:31:23;24.92;;;13.55;;
73776;SDS011;62088;50.240;2.696;2024-03-22T05:33:49;25.90;;;13.93;;
73776;SDS011;62088;50.240;2.696;2024-03-22T05:36:15;26.23;;;14.15;;
73776;SDS011;62088;50.240;2.696;2024-03-22T05:38:41;25.90;;;13.25;;
73776;SDS011;62088;50.240;2.696;2024-03-22T05:41:07;24.00;;;14.77;;
73776;SDS011;62088;50.240;2.696;2024-03-22T05:43:33;25.98;;;13.27;;
73776;SDS011;62088;50.240;2.696;2024-03-22T05:45:59;28.20;;;13.20;;
73776;SDS011;62088;50.240;2.696;2024-03-22T05:48:25;25.50;;;13.10;;
73776;SDS011;62088;50.240;2.696;2024-03-22T05:50:51;25.98;;;13.75;;
73776;SDS011;62088;50.240;2.696;2024-03-22T05:53:18;22.50;;;13.00;;
73776;SDS011;62088;50.240;2.696;2024-03-22T05:55:44;27.25;;;12.57;;
73776;SDS011;62088;50.240;2.696;2024-03-22T05:58:10;28.75;;;12.98;;
73776;SDS011;62088;50.240;2.696;2024-03-22T06:00:36;24.70;;;12.00;;
73776;SDS011;62088;50.240;2.696;2024-03-22T06:03:02;26.30;;;13.45;;
73776;SDS011;62088;50.240;2.696;2024-03-22T06:05:29;26.60;;;15.27;;
73776;SDS011;62088;50.240;2.696;2024-03-22T06:07:55;21.77;;;12.48;;
73776;SDS011;62088;50.240;2.696;2024-03-22T06:10:21;29.15;;;13.90;;
73776;SDS011;62088;50.240;2.696;2024-03-22T06:12:47;23.17;;;12.90;;
73776;SDS011;62088;50.240;2.696;2024-03-22T06:15:13;23.98;;;13.10;;
73776;SDS011;62088;50.240;2.696;2024-03-22T06:17:40;22.58;;;11.65;;
73776;SDS011;62088;50.240;2.696;2024-03-22T06:20:07;21.90;;;11.27;;
73776;SDS011;62088;50.240;2.696;2024-03-22T06:22:35;23.73;;;13.38;;
73776;SDS011;62088;50.240;2.696;2024-03-22T06:25:01;23.65;;;11.35;;
73776;SDS011;62088;50.240;2.696;2024-03-22T06:27:27;22.40;;;12.10;;
73776;SDS011;62088;50.240;2.696;2024-03-22T06:29:53;18.60;;;10.13;;
73776;SDS011;62088;50.240;2.696;2024-03-22T06:32:19;17.90;;;8.70;;
73776;SDS011;62088;50.240;2.696;2024-03-22T06:34:45;20.52;;;10.07;;
73776;SDS011;62088;50.240;2.696;2024-03-22T06:37:11;19.23;;;9.40;;
73776;SDS011;62088;50.240;2.696;2024-03-22T06:39:37;20.98;;;11.05;;
73776;SDS011;62088;50.240;2.696;2024-03-22T06:42:04;17.08;;;8.05;;
73776;SDS011;62088;50.240;2.696;2024-03-22T06:44:30;18.98;;;8.70;;
73776;SDS011;62088;50.240;2.696;2024-03-22T06:46:56;13.23;;;8.55;;
73776;SDS011;62088;50.240;2.696;2024-03-22T06:49:22;16.10;;;9.52;;
73776;SDS011;62088;50.240;2.696;2024-03-22T06:51:48;15.38;;;8.02;;
73776;SDS011;62088;50.240;2.696;2024-03-22T06:54:15;15.70;;;8.52;;
73776;SDS011;62088;50.240;2.696;2024-03-22T06:56:41;16.83;;;10.00;;
73776;SDS011;62088;50.240;2.696;2024-03-22T06:59:07;15.38;;;7.90;;
73776;SDS011;62088;50.240;2.696;2024-03-22T07:01:33;15.52;;;8.00;;
73776;SDS011;62088;50.240;2.696;2024-03-22T07:03:59;14.57;;;8.55;;
73776;SDS011;62088;50.240;2.696;2024-03-22T07:06:25;12.43;;;7.03;;
73776;SDS011;62088;50.240;2.696;2024-03-22T07:08:51;13.50;;;8.48;;
73776;SDS011;62088;50.240;2.696;2024-03-22T07:11:17;15.38;;;8.73;;
73776;SDS011;62088;50.240;2.696;2024-03-22T07:13:43;13.07;;;7.13;;
73776;SDS011;62088;50.240;2.696;2024-03-22T07:16:09;14.02;;;7.63;;
73776;SDS011;62088;50.240;2.696;2024-03-22T07:18:35;15.98;;;7.72;;
73776;SDS011;62088;50.240;2.696;2024-03-22T07:21:02;18.20;;;8.52;;
73776;SDS011;62088;50.240;2.696;2024-03-22T07:23:29;12.77;;;7.22;;
73776;SDS011;62088;50.240;2.696;2024-03-22T07:25:55;20.65;;;8.93;;
73776;SDS011;62088;50.240;2.696;2024-03-22T07:28:21;13.10;;;7.60;;
73776;SDS011;62088;50.240;2.696;2024-03-22T07:30:47;13.43;;;7.88;;
73776;SDS011;62088;50.240;2.696;2024-03-22T07:33:13;14.82;;;7.47;;
73776;SDS011;62088;50.240;2.696;2024-03-22T07:35:41;19.15;;;8.18;;
73776;SDS011;62088;50.240;2.696;2024-03-22T07:38:07;11.52;;;7.22;;
73776;SDS011;62088;50.240;2.696;2024-03-22T07:40:33;13.45;;;7.10;;
73776;SDS011;62088;50.240;2.696;2024-03-22T07:42:59;14.98;;;8.48;;
73776;SDS011;62088;50.240;2.696;2024-03-22T07:45:31;17.60;;;8.25;;
73776;SDS011;62088;50.240;2.696;2024-03-22T07:47:59;17.70;;;7.80;;
73776;SDS011;62088;50.240;2.696;2024-03-22T07:50:25;11.50;;;6.38;;
73776;SDS011;62088;50.240;2.696;2024-03-22T07:52:51;10.05;;;6.30;;
73776;SDS011;62088;50.240;2.696;2024-03-22T07:55:19;11.93;;;5.95;;
73776;SDS011;62088;50.240;2.696;2024-03-22T07:57:45;15.25;;;7.85;;
73776;SDS011;62088;50.240;2.696;2024-03-22T08:00:11;14.35;;;6.30;;
73776;SDS011;62088;50.240;2.696;2024-03-22T08:02:37;11.52;;;5.93;;
73776;SDS011;62088;50.240;2.696;2024-03-22T08:05:03;13.90;;;7.30;;
73776;SDS011;62088;50.240;2.696;2024-03-22T08:07:30;17.35;;;7.30;;
73776;SDS011;62088;50.240;2.696;2024-03-22T08:09:56;16.83;;;7.60;;
73776;SDS011;62088;50.240;2.696;2024-03-22T08:12:24;14.45;;;5.72;;
73776;SDS011;62088;50.240;2.696;2024-03-22T08:14:50;12.55;;;6.50;;
73776;SDS011;62088;50.240;2.696;2024-03-22T08:17:16;18.42;;;6.45;;
73776;SDS011;62088;50.240;2.696;2024-03-22T08:19:42;10.57;;;6.45;;
73776;SDS011;62088;50.240;2.696;2024-03-22T08:22:10;11.13;;;5.90;;
73776;SDS011;62088;50.240;2.696;2024-03-22T08:24:36;12.25;;;5.75;;
73776;SDS011;62088;50.240;2.696;2024-03-22T08:27:03;17.95;;;6.70;;
73776;SDS011;62088;50.240;2.696;2024-03-22T08:29:29;10.52;;;5.30;;
73776;SDS011;62088;50.240;2.696;2024-03-22T08:31:55;10.50;;;5.65;;
73776;SDS011;62088;50.240;2.696;2024-03-22T08:34:21;9.98;;;5.07;;
73776;SDS011;62088;50.240;2.696;2024-03-22T08:36:47;11.68;;;5.72;;
73776;SDS011;62088;50.240;2.696;2024-03-22T08:39:13;10.00;;;5.07;;
73776;SDS011;62088;50.240;2.696;2024-03-22T08:41:40;15.10;;;5.00;;
73776;SDS011;62088;50.240;2.696;2024-03-22T08:44:06;9.40;;;5.07;;
73776;SDS011;62088;50.240;2.696;2024-03-22T08:46:32;8.38;;;5.15;;
73776;SDS011;62088;50.240;2.696;2024-03-22T08:48:58;14.15;;;5.35;;
73776;SDS011;62088;50.240;2.696;2024-03-22T08:51:24;11.75;;;4.25;;
73776;SDS011;62088;50.240;2.696;2024-03-22T08:53:51;12.85;;;6.55;;
73776;SDS011;62088;50.240;2.696;2024-03-22T08:56:17;20.30;;;4.18;;
73776;SDS011;62088;50.240;2.696;2024-03-22T08:58:43;20.05;;;5.63;;
73776;SDS011;62088;50.240;2.696;2024-03-22T09:01:09;10.90;;;4.70;;
73776;SDS011;62088;50.240;2.696;2024-03-22T09:03:38;6.75;;;3.67;;
73776;SDS011;62088;50.240;2.696;2024-03-22T09:06:05;10.02;;;4.28;;
73776;SDS011;62088;50.240;2.696;2024-03-22T09:08:31;7.38;;;4.22;;
73776;SDS011;62088;50.240;2.696;2024-03-22T09:10:58;9.40;;;3.85;;
73776;SDS011;62088;50.240;2.696;2024-03-22T09:13:24;11.63;;;4.55;;
73776;SDS011;62088;50.240;2.696;2024-03-22T09:15:57;12.20;;;4.80;;
73776;SDS011;62088;50.240;2.696;2024-03-22T09:18:24;10.70;;;4.10;;
73776;SDS011;62088;50.240;2.696;2024-03-22T09:20:52;11.73;;;3.90;;
73776;SDS011;62088;50.240;2.696;2024-03-22T09:23:18;8.98;;;4.53;;
73776;SDS011;62088;50.240;2.696;2024-03-22T09:25:45;9.10;;;4.30;;
73776;SDS011;62088;50.240;2.696;2024-03-22T09:28:12;11.13;;;3.92;;
73776;SDS011;62088;50.240;2.696;2024-03-22T09:30:39;8.50;;;4.68;;
73776;SDS011;62088;50.240;2.696;2024-03-22T09:33:06;12.95;;;4.50;;
73776;SDS011;62088;50.240;2.696;2024-03-22T09:35:35;9.43;;;4.32;;
73776;SDS011;62088;50.240;2.696;2024-03-22T09:38:01;7.88;;;4.22;;
73776;SDS011;62088;50.240;2.696;2024-03-22T09:40:28;7.97;;;3.65;;
73776;SDS011;62088;50.240;2.696;2024-03-22T09:42:54;7.78;;;4.10;;
73776;SDS011;62088;50.240;2.696;2024-03-22T09:45:31;7.15;;;4.25;;
73776;SDS011;62088;50.240;2.696;2024-03-22T09:47:57;8.13;;;3.67;;
73776;SDS011;62088;50.240;2.696;2024-03-22T09:50:24;8.75;;;4.05;;
73776;SDS011;62088;50.240;2.696;2024-03-22T09:52:54;6.72;;;3.90;;
73776;SDS011;62088;50.240;2.696;2024-03-22T09:55:22;7.88;;;3.80;;
73776;SDS011;62088;50.240;2.696;2024-03-22T09:57:49;8.70;;;3.38;;
73776;SDS011;62088;50.240;2.696;2024-03-22T10:00:18;8.98;;;4.10;;
73776;SDS011;62088;50.240;2.696;2024-03-22T10:02:46;7.78;;;3.78;;
73776;SDS011;62088;50.240;2.696;2024-03-22T10:05:13;7.60;;;3.53;;
73776;SDS011;62088;50.240;2.696;2024-03-22T10:07:40;9.27;;;3.80;;
73776;SDS011;62088;50.240;2.696;2024-03-22T10:10:07;9.23;;;3.55;;
73776;SDS011;62088;50.240;2.696;2024-03-22T10:12:33;15.00;;;4.30;;
73776;SDS011;62088;50.240;2.696;2024-03-22T10:14:59;9.00;;;3.97;;
73776;SDS011;62088;50.240;2.696;2024-03-22T10:17:26;7.30;;;3.63;;
73776;SDS011;62088;50.240;2.696;2024-03-22T10:19:53;7.20;;;3.50;;
73776;SDS011;62088;50.240;2.696;2024-03-22T10:22:20;10.52;;;3.63;;
73776;SDS011;62088;50.240;2.696;2024-03-22T10:24:46;11.15;;;3.58;;
73776;SDS011;62088;50.240;2.696;2024-03-22T10:27:12;7.78;;;3.15;;
73776;SDS011;62088;50.240;2.696;2024-03-22T10:29:39;7.35;;;3.75;;
73776;SDS011;62088;50.240;2.696;2024-03-22T10:32:05;10.05;;;3.22;;
73776;SDS011;62088;50.240;2.696;2024-03-22T10:34:33;6.95;;;3.90;;
73776;SDS011;62088;50.240;2.696;2024-03-22T10:37:00;7.57;;;3.92;;
73776;SDS011;62088;50.240;2.696;2024-03-22T10:39:26;7.60;;;3.85;;
73776;SDS011;62088;50.240;2.696;2024-03-22T10:41:54;8.02;;;3.88;;
73776;SDS011;62088;50.240;2.696;2024-03-22T10:44:20;9.13;;;3.97;;
73776;SDS011;62088;50.240;2.696;2024-03-22T10:46:49;6.80;;;2.97;;
73776;SDS011;62088;50.240;2.696;2024-03-22T10:49:18;8.23;;;3.53;;
73776;SDS011;62088;50.240;2.696;2024-03-22T10:51:49;8.70;;;3.75;;
73776;SDS011;62088;50.240;2.696;2024-03-22T10:54:19;7.00;;;3.42;;
73776;SDS011;62088;50.240;2.696;2024-03-22T10:56:47;8.98;;;3.55;;
73776;SDS011;62088;50.240;2.696;2024-03-22T10:59:18;9.55;;;3.97;;
73776;SDS011;62088;50.240;2.696;2024-03-22T11:01:45;8.20;;;3.63;;
73776;SDS011;62088;50.240;2.696;2024-03-22T11:04:12;10.52;;;3.78;;
73776;SDS011;62088;50.240;2.696;2024-03-22T11:06:40;11.98;;;3.92;;
73776;SDS011;62088;50.240;2.696;2024-03-22T11:09:07;7.97;;;4.18;;
73776;SDS011;62088;50.240;2.696;2024-03-22T11:11:35;10.70;;;3.30;;
73776;SDS011;62088;50.240;2.696;2024-03-22T11:14:04;7.90;;;2.65;;
73776;SDS011;62088;50.240;2.696;2024-03-22T11:16:30;11.77;;;3.55;;
73776;SDS011;62088;50.240;2.696;2024-03-22T11:18:56;4.97;;;2.60;;
73776;SDS011;62088;50.240;2.696;2024-03-22T11:21:22;8.55;;;3.05;;
73776;SDS011;62088;50.240;2.696;2024-03-22T11:23:49;8.73;;;3.13;;
73776;SDS011;62088;50.240;2.696;2024-03-22T11:26:15;7.35;;;3.05;;
73776;SDS011;62088;50.240;2.696;2024-03-22T11:28:42;10.10;;;2.63;;
73776;SDS011;62088;50.240;2.696;2024-03-22T11:31:08;7.35;;;2.67;;
73776;SDS011;62088;50.240;2.696;2024-03-22T11:33:34;6.55;;;2.83;;
73776;SDS011;62088;50.240;2.696;2024-03-22T11:36:01;11.25;;;3.15;;
73776;SDS011;62088;50.240;2.696;2024-03-22T11:38:27;10.40;;;3.22;;
73776;SDS011;62088;50.240;2.696;2024-03-22T11:40:56;7.43;;;2.85;;
73776;SDS011;62088;50.240;2.696;2024-03-22T11:43:26;10.52;;;3.40;;
73776;SDS011;62088;50.240;2.696;2024-03-22T11:45:54;26.30;;;5.03;;
73776;SDS011;62088;50.240;2.696;2024-03-22T11:48:21;7.82;;;3.08;;
73776;SDS011;62088;50.240;2.696;2024-03-22T11:50:48;7.15;;;3.03;;
73776;SDS011;62088;50.240;2.696;2024-03-22T11:53:18;9.35;;;3.10;;
73776;SDS011;62088;50.240;2.696;2024-03-22T11:55:44;8.40;;;3.65;;
73776;SDS011;62088;50.240;2.696;2024-03-22T11:58:10;7.35;;;3.30;;
73776;SDS011;62088;50.240;2.696;2024-03-22T12:00:36;8.20;;;3.10;;
73776;SDS011;62088;50.240;2.696;2024-03-22T12:03:03;8.98;;;2.60;;
73776;SDS011;62088;50.240;2.696;2024-03-22T12:05:31;4.68;;;2.47;;
73776;SDS011;62088;50.240;2.696;2024-03-22T12:07:57;8.60;;;2.85;;
73776;SDS011;62088;50.240;2.696;2024-03-22T12:10:23;10.82;;;3.15;;
73776;SDS011;62088;50.240;2.696;2024-03-22T12:12:49;5.43;;;3.00;;
73776;SDS011;62088;50.240;2.696;2024-03-22T12:15:15;4.50;;;2.72;;
73776;SDS011;62088;50.240;2.696;2024-03-22T12:17:41;8.15;;;3.22;;
73776;SDS011;62088;50.240;2.696;2024-03-22T12:20:08;6.50;;;2.92;;
73776;SDS011;62088;50.240;2.696;2024-03-22T12:22:35;7.82;;;2.78;;
73776;SDS011;62088;50.240;2.696;2024-03-22T12:25:01;7.57;;;2.80;;
73776;SDS011;62088;50.240;2.696;2024-03-22T12:27:27;5.97;;;3.13;;
73776;SDS011;62088;50.240;2.696;2024-03-22T12:29:54;7.10;;;3.25;;
73776;SDS011;62088;50.240;2.696;2024-03-22T12:32:20;8.35;;;2.83;;
73776;SDS011;62088;50.240;2.696;2024-03-22T12:34:46;7.78;;;3.00;;
73776;SDS011;62088;50.240;2.696;2024-03-22T12:37:13;8.75;;;3.00;;
73776;SDS011;62088;50.240;2.696;2024-03-22T12:39:39;7.50;;;3.25;;
73776;SDS011;62088;50.240;2.696;2024-03-22T12:42:05;8.10;;;3.30;;
73776;SDS011;62088;50.240;2.696;2024-03-22T12:44:31;7.35;;;3.40;;
73776;SDS011;62088;50.240;2.696;2024-03-22T12:46:57;7.40;;;3.58;;
73776;SDS011;62088;50.240;2.696;2024-03-22T12:49:24;9.18;;;2.95;;
73776;SDS011;62088;50.240;2.696;2024-03-22T12:51:50;11.00;;;3.33;;
73776;SDS011;62088;50.240;2.696;2024-03-22T12:54:16;13.35;;;3.78;;
73776;SDS011;62088;50.240;2.696;2024-03-22T12:56:45;10.77;;;3.88;;
73776;SDS011;62088;50.240;2.696;2024-03-22T12:59:11;12.43;;;3.75;;
73776;SDS011;62088;50.240;2.696;2024-03-22T13:01:37;7.32;;;3.45;;
73776;SDS011;62088;50.240;2.696;2024-03-22T13:04:03;9.00;;;4.50;;
73776;SDS011;62088;50.240;2.696;2024-03-22T13:06:30;17.52;;;4.45;;
73776;SDS011;62088;50.240;2.696;2024-03-22T13:08:55;9.00;;;3.60;;
73776;SDS011;62088;50.240;2.696;2024-03-22T13:11:22;8.30;;;3.67;;
73776;SDS011;62088;50.240;2.696;2024-03-22T13:13:48;7.95;;;3.70;;
73776;SDS011;62088;50.240;2.696;2024-03-22T13:16:14;10.77;;;4.10;;
73776;SDS011;62088;50.240;2.696;2024-03-22T13:18:41;7.63;;;4.07;;
73776;SDS011;62088;50.240;2.696;2024-03-22T13:21:08;7.43;;;4.35;;
73776;SDS011;62088;50.240;2.696;2024-03-22T13:23:36;11.98;;;3.92;;
73776;SDS011;62088;50.240;2.696;2024-03-22T13:26:05;9.85;;;4.53;;
73776;SDS011;62088;50.240;2.696;2024-03-22T13:28:32;9.45;;;4.78;;
73776;SDS011;62088;50.240;2.696;2024-03-22T13:30:59;7.13;;;4.15;;
73776;SDS011;62088;50.240;2.696;2024-03-22T13:33:29;9.27;;;3.50;;
73776;SDS011;62088;50.240;2.696;2024-03-22T13:35:55;8.15;;;4.20;;
73776;SDS011;62088;50.240;2.696;2024-03-22T13:38:21;8.95;;;3.78;;
73776;SDS011;62088;50.240;2.696;2024-03-22T13:40:54;10.65;;;3.72;;
73776;SDS011;62088;50.240;2.696;2024-03-22T13:43:21;7.30;;;4.20;;
73776;SDS011;62088;50.240;2.696;2024-03-22T13:45:54;8.77;;;3.72;;
73776;SDS011;62088;50.240;2.696;2024-03-22T13:48:20;9.23;;;4.05;;
73776;SDS011;62088;50.240;2.696;2024-03-22T13:50:51;7.80;;;3.78;;
73776;SDS011;62088;50.240;2.696;2024-03-22T13:53:18;10.55;;;3.95;;
73776;SDS011;62088;50.240;2.696;2024-03-22T13:55:45;8.30;;;3.78;;
73776;SDS011;62088;50.240;2.696;2024-03-22T13:58:11;7.18;;;3.55;;
73776;SDS011;62088;50.240;2.696;2024-03-22T14:00:38;6.97;;;3.55;;
73776;SDS011;62088;50.240;2.696;2024-03-22T14:03:04;8.93;;;3.03;;
73776;SDS011;62088;50.240;2.696;2024-03-22T14:05:31;7.32;;;3.38;;
73776;SDS011;62088;50.240;2.696;2024-03-22T14:08:00;6.88;;;3.15;;
73776;SDS011;62088;50.240;2.696;2024-03-22T14:10:26;6.35;;;3.90;;
73776;SDS011;62088;50.240;2.696;2024-03-22T14:12:53;7.85;;;4.13;;
73776;SDS011;62088;50.240;2.696;2024-03-22T14:15:19;8.40;;;4.22;;
73776;SDS011;62088;50.240;2.696;2024-03-22T14:17:45;9.43;;;3.25;;
73776;SDS011;62088;50.240;2.696;2024-03-22T14:20:12;7.82;;;3.28;;
73776;SDS011;62088;50.240;2.696;2024-03-22T14:22:41;9.15;;;3.38;;
73776;SDS011;62088;50.240;2.696;2024-03-22T14:25:07;7.07;;;3.05;;
73776;SDS011;62088;50.240;2.696;2024-03-22T14:27:34;5.90;;;3.13;;
73776;SDS011;62088;50.240;2.696;2024-03-22T14:30:01;7.35;;;3.03;;
73776;SDS011;62088;50.240;2.696;2024-03-22T14:32:31;7.65;;;2.92;;